Time;durP1;ratioP1;P1;durP2;ratioP2;P2;SDS_P1;SDS_P2;PMS_P1;PMS_P2;Temp;Humidity;BMP_temperature;BMP_pressure;BME280_temperature;BME280_humidity;BME280_pressure;Samples;Min_cycle;Max_cycle;Signal;HPM_P1;HPM_P2
2022/06/11 00:01:58;;;;;;;12.13;7.35;;;;;;;;;;6203560;23;20059;-67
2022/06/11 00:04:29;;;;;;;12.82;6.57;;;;;;;;;;6195276;23;20107;-67
2022/06/11 00:06:58;;;;;;;11.60;6.65;;;;;;;;;;6199577;23;20039;-67
2022/06/11 00:09:24;;;;;;;10.93;7.38;;;;;;;;;;6196202;23;20831;-67
2022/06/11 00:11:51;;;;;;;12.00;5.95;;;;;;;;;;6194703;23;20039;-67
2022/06/11 00:14:19;;;;;;;13.57;6.57;;;;;;;;;;6203309;23;20063;-67
2022/06/11 00:16:46;;;;;;;13.00;6.60;;;;;;;;;;6195980;23;20055;-67
2022/06/11 00:19:13;;;;;;;14.95;6.63;;;;;;;;;;6202961;23;20021;-67
2022/06/11 00:21:41;;;;;;;10.88;6.45;;;;;;;;;;6188221;22;20119;-71
2022/06/11 00:24:08;;;;;;;14.85;6.28;;;;;;;;;;6198060;23;20031;-67
2022/06/11 00:26:35;;;;;;;14.75;6.55;;;;;;;;;;6204007;23;20052;-67
2022/06/11 00:29:04;;;;;;;12.50;6.37;;;;;;;;;;6194271;23;20063;-67
2022/06/11 00:31:30;;;;;;;12.70;7.28;;;;;;;;;;6203157;23;20063;-67
2022/06/11 00:33:57;;;;;;;8.88;7.05;;;;;;;;;;6191727;23;20083;-67
2022/06/11 00:36:23;;;;;;;14.15;6.95;;;;;;;;;;6192646;23;20365;-67
2022/06/11 00:38:50;;;;;;;10.88;7.38;;;;;;;;;;6190644;23;20115;-67
2022/06/11 00:41:18;;;;;;;12.23;6.40;;;;;;;;;;6202160;23;20497;-67
2022/06/11 00:43:44;;;;;;;11.88;5.85;;;;;;;;;;6203412;23;20438;-67
2022/06/11 00:46:29;;;;;;;11.13;5.97;;;;;;;;;;6191278;23;20063;-66
2022/06/11 00:48:56;;;;;;;8.68;4.90;;;;;;;;;;6196219;23;20063;-67
2022/06/11 00:51:23;;;;;;;8.88;4.85;;;;;;;;;;6185458;23;20111;-67
2022/06/11 00:53:55;;;;;;;11.67;4.27;;;;;;;;;;6202780;23;20128;-66
2022/06/11 00:56:21;;;;;;;7.57;4.03;;;;;;;;;;6192027;23;20246;-67
2022/06/11 00:58:49;;;;;;;7.85;4.10;;;;;;;;;;6202485;23;20103;-67
2022/06/11 01:01:17;;;;;;;6.20;4.37;;;;;;;;;;6192174;23;20103;-67
2022/06/11 01:03:45;;;;;;;9.57;4.72;;;;;;;;;;6193787;23;20478;-67
2022/06/11 01:06:14;;;;;;;7.65;3.88;;;;;;;;;;6202114;23;20108;-66
2022/06/11 01:08:52;;;;;;;6.60;4.18;;;;;;;;;;6191818;22;20464;-66
2022/06/11 01:11:34;;;;;;;7.38;3.70;;;;;;;;;;6201609;23;20027;-67
2022/06/11 01:14:14;;;;;;;7.70;4.10;;;;;;;;;;6164910;23;20554;-67
2022/06/11 01:16:50;;;;;;;8.23;4.20;;;;;;;;;;6195041;23;20031;-67
2022/06/11 01:19:37;;;;;;;6.50;3.75;;;;;;;;;;6190623;23;20414;-67
2022/06/11 01:22:12;;;;;;;7.05;4.00;;;;;;;;;;6200723;23;20055;-67
2022/06/11 01:24:48;;;;;;;8.75;4.40;;;;;;;;;;6195175;23;20027;-68
2022/06/11 01:27:14;;;;;;;8.00;4.47;;;;;;;;;;6203307;23;20554;-67
2022/06/11 01:29:59;;;;;;;6.70;3.85;;;;;;;;;;6197523;23;20107;-66
2022/06/11 01:32:41;;;;;;;6.65;4.25;;;;;;;;;;6195533;23;20131;-67
2022/06/11 01:35:17;;;;;;;8.68;4.72;;;;;;;;;;6176405;23;20583;-67
2022/06/11 01:37:50;;;;;;;9.57;4.88;;;;;;;;;;6195051;22;20031;-67
2022/06/11 01:40:22;;;;;;;8.23;5.28;;;;;;;;;;6201550;23;20060;-67
2022/06/11 01:42:51;;;;;;;7.50;5.18;;;;;;;;;;6189376;23;20466;-67
2022/06/11 01:45:23;;;;;;;9.63;6.07;;;;;;;;;;6193236;23;20056;-67
2022/06/11 01:47:50;;;;;;;7.78;5.60;;;;;;;;;;6191800;23;20076;-67
2022/06/11 01:50:18;;;;;;;8.82;5.50;;;;;;;;;;6202708;23;20442;-67
2022/06/11 01:52:52;;;;;;;9.55;5.85;;;;;;;;;;6203609;23;20047;-67
2022/06/11 01:55:26;;;;;;;12.90;6.18;;;;;;;;;;6201226;23;20028;-67
2022/06/11 01:58:01;;;;;;;11.23;5.80;;;;;;;;;;6198487;23;20104;-67
2022/06/11 02:00:30;;;;;;;8.52;6.18;;;;;;;;;;6187683;23;20522;-67
2022/06/11 02:02:56;;;;;;;;;;;;;;;;;;6202862;23;20094;-67
2022/06/11 02:05:22;;;;;;;8.15;5.38;;;;;;;;;;6195079;23;19923;-67
2022/06/11 02:08:07;;;;;;;10.05;5.63;;;;;;;;;;6202716;23;20031;-68
2022/06/11 02:10:44;;;;;;;11.00;6.60;;;;;;;;;;6194122;23;20102;-67
2022/06/11 02:13:16;;;;;;;9.98;6.10;;;;;;;;;;6195946;23;20473;-67
2022/06/11 02:15:47;;;;;;;10.98;5.80;;;;;;;;;;6204364;23;20099;-67
2022/06/11 02:18:15;;;;;;;8.57;5.30;;;;;;;;;;6199541;23;20029;-67
2022/06/11 02:20:46;;;;;;;8.70;5.63;;;;;;;;;;6204771;23;20104;-67
2022/06/11 02:23:15;;;;;;;8.40;5.45;;;;;;;;;;6196156;23;20028;-66
2022/06/11 02:25:48;;;;;;;9.77;5.43;;;;;;;;;;6198661;23;20497;-67
2022/06/11 02:28:16;;;;;;;10.00;5.45;;;;;;;;;;6187370;23;20112;-67
2022/06/11 02:30:43;;;;;;;9.90;5.65;;;;;;;;;;6202812;23;20033;-67
2022/06/11 02:33:10;;;;;;;8.80;5.15;;;;;;;;;;6200157;23;20104;-66
2022/06/11 02:35:46;;;;;;;8.52;5.20;;;;;;;;;;6202476;23;20052;-67
2022/06/11 02:38:16;;;;;;;10.25;5.70;;;;;;;;;;6202364;23;20103;-67
2022/06/11 02:40:44;;;;;;;10.85;5.60;;;;;;;;;;6187801;23;20421;-66
2022/06/11 02:43:10;;;;;;;8.75;5.78;;;;;;;;;;6173412;23;20376;-66
2022/06/11 02:45:37;;;;;;;8.05;5.38;;;;;;;;;;6195614;23;20025;-67
2022/06/11 02:48:04;;;;;;;9.57;5.40;;;;;;;;;;6203581;23;20078;-67
2022/06/11 02:50:31;;;;;;;9.35;5.55;;;;;;;;;;6196463;23;20417;-67
2022/06/11 02:52:58;;;;;;;8.30;5.80;;;;;;;;;;6200026;23;20104;-67
2022/06/11 02:55:25;;;;;;;9.20;5.28;;;;;;;;;;6198255;23;20454;-66
2022/06/11 02:57:52;;;;;;;9.88;5.80;;;;;;;;;;6197186;23;20807;-67
2022/06/11 03:00:21;;;;;;;10.65;5.78;;;;;;;;;;6203455;23;20103;-67
2022/06/11 03:02:48;;;;;;;9.48;5.50;;;;;;;;;;6197391;23;20025;-66
2022/06/11 03:05:17;;;;;;;9.48;5.15;;;;;;;;;;6204209;23;20108;-66
2022/06/11 03:07:44;;;;;;;11.02;5.95;;;;;;;;;;6191624;23;20103;-66
2022/06/11 03:10:12;;;;;;;10.80;6.25;;;;;;;;;;6175641;23;20024;-67
2022/06/11 03:12:39;;;;;;;9.38;4.97;;;;;;;;;;6204652;23;20035;-67
2022/06/11 03:15:05;;;;;;;9.35;5.28;;;;;;;;;;6195204;23;20107;-67
2022/06/11 03:17:32;;;;;;;8.45;5.32;;;;;;;;;;6203471;23;20697;-67
2022/06/11 03:19:59;;;;;;;9.35;4.97;;;;;;;;;;6187314;22;20116;-67
2022/06/11 03:22:26;;;;;;;13.60;5.45;;;;;;;;;;6199668;23;20021;-66
2022/06/11 03:24:52;;;;;;;10.35;5.43;;;;;;;;;;6196811;23;20673;-66
2022/06/11 03:27:19;;;;;;;7.57;5.15;;;;;;;;;;6202089;23;20026;-67
2022/06/11 03:29:46;;;;;;;7.95;4.63;;;;;;;;;;6203499;23;20027;-66
2022/06/11 03:32:12;;;;;;;8.50;5.53;;;;;;;;;;6190425;23;20322;-65
2022/06/11 03:34:38;;;;;;;6.10;4.70;;;;;;;;;;6197045;23;20035;-67
2022/06/11 03:37:05;;;;;;;8.75;5.05;;;;;;;;;;6191433;23;20111;-67
2022/06/11 03:39:32;;;;;;;7.90;4.90;;;;;;;;;;6203986;23;20108;-67
2022/06/11 03:41:58;;;;;;;11.57;5.40;;;;;;;;;;6196211;23;20124;-66
2022/06/11 03:44:24;;;;;;;10.20;4.68;;;;;;;;;;6202680;23;20107;-66
2022/06/11 03:46:51;;;;;;;9.18;5.07;;;;;;;;;;6198584;23;20869;-66
2022/06/11 03:49:18;;;;;;;7.63;4.43;;;;;;;;;;6189772;23;20031;-67
2022/06/11 03:51:45;;;;;;;9.20;4.32;;;;;;;;;;6204003;23;20027;-66
2022/06/11 03:54:11;;;;;;;7.72;4.43;;;;;;;;;;6196532;23;20185;-67
2022/06/11 03:56:39;;;;;;;8.05;4.57;;;;;;;;;;6204299;23;20066;-67
2022/06/11 03:59:06;;;;;;;7.22;4.47;;;;;;;;;;6195737;22;20507;-67
2022/06/11 04:01:36;;;;;;;6.72;4.43;;;;;;;;;;6195680;23;20039;-67
2022/06/11 04:04:04;;;;;;;10.20;5.15;;;;;;;;;;6202326;23;20024;-68
2022/06/11 04:06:36;;;;;;;7.03;4.63;;;;;;;;;;6196160;23;20108;-68
2022/06/11 04:09:04;;;;;;;9.57;4.07;;;;;;;;;;6205343;23;20423;-67
2022/06/11 04:11:30;;;;;;;8.38;4.22;;;;;;;;;;6197865;23;20056;-68
2022/06/11 04:13:57;;;;;;;9.70;4.47;;;;;;;;;;6198310;23;20028;-66
2022/06/11 04:16:32;;;;;;;9.30;4.40;;;;;;;;;;6189462;23;20059;-67
2022/06/11 04:19:00;;;;;;;10.35;4.47;;;;;;;;;;6201980;23;20103;-66
2022/06/11 04:21:28;;;;;;;8.32;4.10;;;;;;;;;;6202572;23;20450;-66
2022/06/11 04:23:55;;;;;;;8.20;4.32;;;;;;;;;;6165130;23;20360;-67
2022/06/11 04:26:24;;;;;;;9.82;4.28;;;;;;;;;;6202415;23;20063;-67
2022/06/11 04:28:50;;;;;;;10.77;4.32;;;;;;;;;;6188470;22;20059;-66
2022/06/11 04:31:16;;;;;;;10.55;3.80;;;;;;;;;;6198118;23;20110;-66
2022/06/11 04:33:44;;;;;;;8.23;3.65;;;;;;;;;;6194585;23;20485;-67
2022/06/11 04:36:11;;;;;;;8.97;4.10;;;;;;;;;;6203949;23;20027;-66
2022/06/11 04:38:38;;;;;;;8.73;3.65;;;;;;;;;;6201728;23;20574;-67
2022/06/11 04:41:05;;;;;;;7.43;3.38;;;;;;;;;;6201307;23;20056;-67
2022/06/11 04:43:32;;;;;;;12.63;3.40;;;;;;;;;;6197423;23;20099;-67
2022/06/11 04:45:58;;;;;;;7.18;2.75;;;;;;;;;;6194316;22;20021;-68
2022/06/11 04:48:25;;;;;;;9.02;3.75;;;;;;;;;;6206080;23;20044;-67
2022/06/11 04:50:51;;;;;;;6.78;3.30;;;;;;;;;;6198993;22;20120;-67
2022/06/11 04:53:18;;;;;;;7.72;3.15;;;;;;;;;;6205354;23;20131;-67
2022/06/11 04:55:45;;;;;;;8.30;2.95;;;;;;;;;;6202385;23;20021;-67
2022/06/11 04:58:12;;;;;;;6.47;2.72;;;;;;;;;;6194113;23;20212;-67
2022/06/11 05:00:38;;;;;;;8.88;3.42;;;;;;;;;;6205963;23;20021;-67
2022/06/11 05:03:05;;;;;;;10.00;3.33;;;;;;;;;;6196801;23;20060;-68
2022/06/11 05:05:32;;;;;;;7.27;2.87;;;;;;;;;;6204264;23;20049;-67
2022/06/11 05:07:59;;;;;;;10.18;2.97;;;;;;;;;;6195379;23;20497;-67
2022/06/11 05:10:27;;;;;;;8.98;3.10;;;;;;;;;;6197830;23;20799;-67
2022/06/11 05:12:53;;;;;;;8.57;2.88;;;;;;;;;;6197446;23;20052;-67
2022/06/11 05:15:20;;;;;;;8.40;2.88;;;;;;;;;;6195172;22;20481;-67
2022/06/11 05:17:47;;;;;;;10.13;2.95;;;;;;;;;;6203425;23;20537;-67
2022/06/11 05:20:13;;;;;;;11.40;2.67;;;;;;;;;;6193122;23;20047;-68
2022/06/11 05:22:39;;;;;;;11.88;2.80;;;;;;;;;;6202516;23;20505;-67
2022/06/11 05:25:06;;;;;;;12.98;3.10;;;;;;;;;;6189986;23;20112;-68
2022/06/11 05:27:34;;;;;;;23.23;3.83;;;;;;;;;;6197396;23;20020;-67
2022/06/11 05:30:03;;;;;;;10.00;2.50;;;;;;;;;;6202373;23;20350;-67
2022/06/11 05:32:32;;;;;;;10.95;2.65;;;;;;;;;;6194911;23;20450;-67
2022/06/11 05:34:59;;;;;;;12.57;3.00;;;;;;;;;;6202678;23;20025;-67
2022/06/11 05:37:26;;;;;;;13.75;2.60;;;;;;;;;;6191944;23;20421;-66
2022/06/11 05:39:52;;;;;;;10.85;2.83;;;;;;;;;;6194150;23;20319;-67
2022/06/11 05:42:20;;;;;;;15.07;2.60;;;;;;;;;;6193928;23;20136;-67
2022/06/11 05:44:47;;;;;;;12.43;2.90;;;;;;;;;;6203170;23;20466;-67
2022/06/11 05:47:14;;;;;;;11.55;2.83;;;;;;;;;;6197155;23;20549;-66
2022/06/11 05:49:42;;;;;;;12.67;2.50;;;;;;;;;;6204696;23;20454;-66
2022/06/11 05:52:10;;;;;;;11.23;2.88;;;;;;;;;;6199402;23;20104;-66
2022/06/11 05:54:39;;;;;;;12.07;2.45;;;;;;;;;;6190895;22;20038;-67
2022/06/11 05:57:07;;;;;;;13.70;2.63;;;;;;;;;;6204181;23;20029;-66
2022/06/11 05:59:35;;;;;;;11.02;2.90;;;;;;;;;;6197893;23;20481;-67
2022/06/11 06:02:03;;;;;;;16.50;3.40;;;;;;;;;;6204341;23;20025;-68
2022/06/11 06:04:30;;;;;;;16.50;2.90;;;;;;;;;;6196446;23;20107;-67
2022/06/11 06:06:57;;;;;;;14.45;3.15;;;;;;;;;;6198554;23;20021;-67
2022/06/11 06:09:23;;;;;;;16.05;3.15;;;;;;;;;;6198137;23;20469;-67
2022/06/11 06:11:49;;;;;;;11.48;2.75;;;;;;;;;;6195386;23;20021;-67
2022/06/11 06:14:16;;;;;;;11.20;2.60;;;;;;;;;;6204299;23;20031;-67
2022/06/11 06:16:42;;;;;;;17.50;3.08;;;;;;;;;;6197750;22;20043;-67
2022/06/11 06:19:09;;;;;;;14.15;2.53;;;;;;;;;;6203586;23;20029;-66
2022/06/11 06:21:37;;;;;;;15.88;3.33;;;;;;;;;;6190809;22;20051;-66
2022/06/11 06:24:04;;;;;;;13.63;2.97;;;;;;;;;;6197106;23;20028;-66
2022/06/11 06:26:30;;;;;;;13.23;3.25;;;;;;;;;;6204218;23;20694;-66
2022/06/11 06:28:56;;;;;;;16.05;2.83;;;;;;;;;;6196319;23;20032;-67
2022/06/11 06:31:23;;;;;;;14.65;3.40;;;;;;;;;;6203725;23;20084;-67
2022/06/11 06:33:51;;;;;;;13.55;2.97;;;;;;;;;;6193519;23;20066;-67
2022/06/11 06:36:17;;;;;;;10.47;2.80;;;;;;;;;;6197065;23;20208;-67
2022/06/11 06:38:44;;;;;;;13.35;2.90;;;;;;;;;;6195845;23;20375;-67
2022/06/11 06:41:11;;;;;;;20.25;3.30;;;;;;;;;;6203527;23;20084;-67
2022/06/11 06:43:38;;;;;;;12.23;3.08;;;;;;;;;;6204062;23;20027;-67
2022/06/11 06:46:05;;;;;;;19.67;3.70;;;;;;;;;;6197037;23;20053;-66
2022/06/11 06:48:31;;;;;;;17.52;3.70;;;;;;;;;;6199599;23;20108;-67
2022/06/11 06:50:58;;;;;;;17.20;3.15;;;;;;;;;;6190062;22;20127;-66
2022/06/11 06:53:26;;;;;;;14.98;3.38;;;;;;;;;;6204250;23;20024;-66
2022/06/11 06:55:52;;;;;;;13.95;3.38;;;;;;;;;;6203499;23;20027;-66
2022/06/11 06:58:19;;;;;;;14.50;2.55;;;;;;;;;;6200131;23;20103;-67
2022/06/11 07:00:46;;;;;;;15.50;3.50;;;;;;;;;;6204040;23;20021;-66
2022/06/11 07:03:13;;;;;;;15.93;3.20;;;;;;;;;;6188690;23;20021;-66
2022/06/11 07:05:41;;;;;;;11.95;3.00;;;;;;;;;;6198647;23;20028;-66
2022/06/11 07:08:07;;;;;;;13.15;3.25;;;;;;;;;;6194028;23;20123;-66
2022/06/11 07:10:39;;;;;;;19.48;3.17;;;;;;;;;;6204304;23;20025;-67
2022/06/11 07:13:05;;;;;;;18.17;3.67;;;;;;;;;;6195448;23;20027;-66
2022/06/11 07:15:32;;;;;;;15.60;3.70;;;;;;;;;;6202377;23;20350;-67
2022/06/11 07:18:01;;;;;;;16.13;2.97;;;;;;;;;;6195869;23;20029;-66
2022/06/11 07:20:29;;;;;;;19.10;3.22;;;;;;;;;;6194789;23;20741;-67
2022/06/11 07:22:56;;;;;;;12.23;2.90;;;;;;;;;;6204220;23;20024;-66
2022/06/11 07:25:23;;;;;;;19.90;3.33;;;;;;;;;;6196354;23;20031;-66
2022/06/11 07:27:52;;;;;;;13.63;3.20;;;;;;;;;;6205121;23;20063;-66
2022/06/11 07:30:20;;;;;;;14.55;3.60;;;;;;;;;;6188730;23;20219;-67
2022/06/11 07:32:50;;;;;;;16.45;3.05;;;;;;;;;;6200435;23;20056;-67
2022/06/11 07:35:17;;;;;;;22.48;4.03;;;;;;;;;;6202045;23;20030;-67
2022/06/11 07:37:45;;;;;;;17.45;3.38;;;;;;;;;;6193015;23;20107;-67
2022/06/11 07:40:11;;;;;;;13.35;2.97;;;;;;;;;;6203246;23;20104;-66
2022/06/11 07:42:38;;;;;;;14.68;2.97;;;;;;;;;;6192236;23;20111;-66
2022/06/11 07:45:04;;;;;;;22.15;3.75;;;;;;;;;;6196598;23;20027;-66
2022/06/11 07:50:25;;;;;;;19.00;3.25;;;;;;;;;;6204044;23;20020;-66
2022/06/11 07:52:52;;;;;;;13.20;3.15;;;;;;;;;;6198886;23;20044;-66
2022/06/11 07:55:19;;;;;;;15.90;3.30;;;;;;;;;;6202495;23;20025;-66
2022/06/11 07:57:45;;;;;;;15.20;2.97;;;;;;;;;;6204023;23;20052;-67
2022/06/11 08:00:14;;;;;;;14.65;3.13;;;;;;;;;;6200613;23;20481;-67
2022/06/11 08:02:40;;;;;;;17.10;3.40;;;;;;;;;;6211676;23;20068;-67
2022/06/11 08:05:07;;;;;;;15.27;3.60;;;;;;;;;;6204276;23;20017;-67
2022/06/11 08:07:33;;;;;;;16.23;3.30;;;;;;;;;;6211389;23;20060;-67
2022/06/11 08:09:59;;;;;;;13.27;2.97;;;;;;;;;;6201534;23;20472;-66
2022/06/11 08:12:26;;;;;;;18.05;2.88;;;;;;;;;;6202320;23;20440;-66
2022/06/11 08:14:56;;;;;;;18.88;3.58;;;;;;;;;;6211620;23;20108;-66
2022/06/11 08:17:29;;;;;;;15.30;2.83;;;;;;;;;;6201242;23;20126;-66
2022/06/11 08:19:56;;;;;;;14.52;2.78;;;;;;;;;;6210154;23;20017;-66
2022/06/11 08:22:22;;;;;;;13.20;3.08;;;;;;;;;;6202418;23;20573;-66
2022/06/11 08:24:49;;;;;;;14.55;3.20;;;;;;;;;;6204207;23;20119;-66
2022/06/11 08:27:16;;;;;;;13.90;2.92;;;;;;;;;;6197392;23;20017;-66
2022/06/11 08:29:43;;;;;;;16.25;3.70;;;;;;;;;;6209441;23;20021;-67
2022/06/11 08:32:10;;;;;;;11.68;3.20;;;;;;;;;;6209566;23;20111;-67
2022/06/11 08:34:37;;;;;;;13.57;2.87;;;;;;;;;;6202940;23;20071;-66
2022/06/11 08:37:04;;;;;;;14.82;2.80;;;;;;;;;;6209855;23;20027;-67
2022/06/11 08:39:30;;;;;;;17.42;3.30;;;;;;;;;;6194666;23;20119;-66
2022/06/11 08:41:59;;;;;;;12.18;2.85;;;;;;;;;;6209341;23;20059;-66
2022/06/11 08:44:27;;;;;;;13.00;2.40;;;;;;;;;;6203397;22;20450;-67
2022/06/11 08:46:54;;;;;;;10.88;2.20;;;;;;;;;;6210228;23;20103;-66
2022/06/11 08:49:30;;;;;;;16.10;3.35;;;;;;;;;;6210705;23;20076;-68
2022/06/11 08:51:58;;;;;;;13.32;3.00;;;;;;;;;;6197896;23;20063;-67
2022/06/11 08:54:24;;;;;;;;;;;;;;;;;;6205110;23;20025;-68
2022/06/11 08:57:06;;;;;;;12.63;3.20;;;;;;;;;;6201968;23;19994;-67
2022/06/11 08:59:51;;;;;;;13.93;2.95;;;;;;;;;;6210500;23;20017;-67
2022/06/11 09:02:27;;;;;;;15.48;3.38;;;;;;;;;;6201203;23;20027;-68
2022/06/11 09:05:02;;;;;;;13.98;3.05;;;;;;;;;;6208791;23;20028;-67
2022/06/11 09:07:44;;;;;;;16.02;3.28;;;;;;;;;;6191824;23;20031;-68
2022/06/11 09:10:23;;;;;;;12.70;3.10;;;;;;;;;;6208615;23;20395;-67
2022/06/11 09:12:52;;;;;;;17.15;3.38;;;;;;;;;;6202179;23;20459;-67
2022/06/11 09:15:26;;;;;;;16.02;3.35;;;;;;;;;;6209828;23;20020;-67
2022/06/11 09:17:53;;;;;;;25.20;3.78;;;;;;;;;;6209646;23;20020;-67
2022/06/11 09:20:45;;;;;;;12.85;2.78;;;;;;;;;;6195923;22;20027;-67
2022/06/11 09:23:30;;;;;;;14.90;3.17;;;;;;;;;;6143126;23;20103;-67
2022/06/11 09:26:17;;;;;;;16.05;3.20;;;;;;;;;;6202111;23;20416;-68
2022/06/11 09:28:51;;;;;;;10.07;3.03;;;;;;;;;;6209786;23;20031;-68
2022/06/11 09:31:40;;;;;;;14.68;3.35;;;;;;;;;;6201408;23;20404;-67
2022/06/11 09:34:22;;;;;;;13.48;2.70;;;;;;;;;;6203482;23;20024;-67
2022/06/11 09:36:56;;;;;;;12.48;2.65;;;;;;;;;;6194232;23;20488;-68
2022/06/11 09:39:23;;;;;;;12.88;2.83;;;;;;;;;;6209431;23;20490;-66
2022/06/11 09:41:49;;;;;;;15.73;3.17;;;;;;;;;;6200712;22;20473;-68
2022/06/11 09:44:41;;;;;;;13.82;2.97;;;;;;;;;;6209604;23;20107;-67
2022/06/11 09:47:20;;;;;;;12.70;2.83;;;;;;;;;;6193326;23;20224;-68
2022/06/11 09:49:54;;;;;;;14.38;2.53;;;;;;;;;;6204696;23;20027;-68
2022/06/11 09:52:26;;;;;;;11.63;2.35;;;;;;;;;;6208897;23;20103;-67
2022/06/11 09:55:04;;;;;;;13.60;3.05;;;;;;;;;;6206175;23;20548;-68
2022/06/11 09:57:49;;;;;;;14.82;3.25;;;;;;;;;;6209444;23;20024;-68
2022/06/11 10:00:38;;;;;;;18.38;3.45;;;;;;;;;;6202348;23;20032;-68
2022/06/11 10:05:48;;;;;;;13.18;2.85;;;;;;;;;;6201518;23;20104;-68
2022/06/11 10:08:27;;;;;;;12.32;2.92;;;;;;;;;;6209833;23;20031;-68
2022/06/11 10:10:54;;;;;;;16.17;3.45;;;;;;;;;;6203423;23;20050;-67
2022/06/11 10:13:32;;;;;;;13.77;3.25;;;;;;;;;;6209765;23;20099;-68
2022/06/11 10:15:59;;;;;;;;;;;;;;;;;;6194698;23;20466;-67
2022/06/11 10:18:33;;;;;;;16.15;3.42;;;;;;;;;;6204860;23;19930;-68
2022/06/11 10:21:03;;;;;;;12.55;3.03;;;;;;;;;;6204279;23;20048;-67
2022/06/11 10:23:40;;;;;;;16.15;3.00;;;;;;;;;;6208689;23;20056;-67
2022/06/11 10:26:09;;;;;;;16.60;3.67;;;;;;;;;;6209312;23;20135;-67
2022/06/11 10:28:39;;;;;;;15.38;3.53;;;;;;;;;;6196261;23;20021;-67
2022/06/11 10:31:12;;;;;;;12.25;2.75;;;;;;;;;;6203671;23;20017;-67
2022/06/11 10:33:38;;;;;;;15.20;3.90;;;;;;;;;;6202489;23;20021;-67
2022/06/11 10:36:26;;;;;;;15.10;3.42;;;;;;;;;;6211405;23;20025;-67
2022/06/11 10:38:58;;;;;;;19.23;4.55;;;;;;;;;;6203805;23;20405;-67
2022/06/11 10:41:28;;;;;;;14.52;3.05;;;;;;;;;;6210635;23;20099;-67
2022/06/11 10:43:57;;;;;;;13.57;3.75;;;;;;;;;;6196924;23;20501;-66
2022/06/11 10:46:24;;;;;;;14.65;3.03;;;;;;;;;;6205527;23;20039;-66
2022/06/11 10:48:50;;;;;;;13.13;3.00;;;;;;;;;;6211118;23;20052;-68
2022/06/11 10:51:22;;;;;;;16.08;3.15;;;;;;;;;;6202788;23;20095;-67
2022/06/11 10:54:09;;;;;;;14.82;3.00;;;;;;;;;;6210827;23;20095;-67
2022/06/11 10:56:44;;;;;;;11.88;2.72;;;;;;;;;;6196115;23;20020;-67
2022/06/11 10:59:19;;;;;;;12.15;2.85;;;;;;;;;;6205406;23;20052;-67
2022/06/11 11:02:05;;;;;;;11.85;2.40;;;;;;;;;;6203571;23;20056;-68
2022/06/11 11:04:53;;;;;;;11.77;2.53;;;;;;;;;;6190809;23;20759;-67
2022/06/11 11:07:20;;;;;;;8.88;2.33;;;;;;;;;;6203545;23;20488;-67
2022/06/11 11:09:47;;;;;;;14.97;3.33;;;;;;;;;;6211796;23;20028;-68
2022/06/11 11:12:16;;;;;;;8.60;2.53;;;;;;;;;;6201974;23;20028;-67
2022/06/11 11:14:44;;;;;;;13.50;3.30;;;;;;;;;;6201579;23;20108;-68
2022/06/11 11:17:15;;;;;;;11.98;2.95;;;;;;;;;;6210734;23;20059;-68
2022/06/11 11:19:43;;;;;;;16.02;3.08;;;;;;;;;;6202860;23;20067;-67
2022/06/11 11:22:17;;;;;;;15.05;3.03;;;;;;;;;;6210026;23;20107;-67
2022/06/11 11:24:49;;;;;;;16.35;3.20;;;;;;;;;;6197647;23;20020;-68
2022/06/11 11:27:31;;;;;;;13.32;2.60;;;;;;;;;;6204530;23;20704;-67
2022/06/11 11:30:10;;;;;;;15.60;3.70;;;;;;;;;;6175449;23;20881;-67
2022/06/11 11:32:42;;;;;;;11.82;3.10;;;;;;;;;;6210904;23;20048;-68
2022/06/11 11:35:15;;;;;;;12.50;2.58;;;;;;;;;;6210413;23;20103;-68
2022/06/11 11:37:41;;;;;;;14.70;3.10;;;;;;;;;;6208701;23;20445;-67
2022/06/11 11:40:25;;;;;;;10.80;2.70;;;;;;;;;;6173773;23;20044;-68
2022/06/11 11:42:54;;;;;;;12.43;2.47;;;;;;;;;;6201840;22;20025;-68
2022/06/11 11:45:21;;;;;;;12.57;2.55;;;;;;;;;;6210399;23;20132;-68
2022/06/11 11:47:49;;;;;;;10.90;2.55;;;;;;;;;;6203208;23;20478;-67
2022/06/11 11:50:19;;;;;;;13.05;2.67;;;;;;;;;;6210160;23;20025;-68
2022/06/11 11:52:50;;;;;;;14.45;2.88;;;;;;;;;;6196400;23;20476;-67
2022/06/11 11:55:19;;;;;;;12.45;3.28;;;;;;;;;;6204427;23;20543;-68
2022/06/11 11:58:02;;;;;;;12.73;2.45;;;;;;;;;;6210645;23;20048;-67
2022/06/11 12:00:39;;;;;;;16.15;3.30;;;;;;;;;;6209412;23;20103;-67
2022/06/11 12:03:14;;;;;;;10.82;2.78;;;;;;;;;;6210339;23;20095;-66
2022/06/11 12:05:47;;;;;;;11.73;2.72;;;;;;;;;;6202118;22;20081;-67
2022/06/11 12:08:19;;;;;;;13.00;3.15;;;;;;;;;;6210001;23;20099;-67
2022/06/11 12:10:48;;;;;;;13.95;3.13;;;;;;;;;;6203354;23;20107;-67
2022/06/11 12:13:19;;;;;;;13.20;2.75;;;;;;;;;;6210174;23;20120;-67
2022/06/11 12:15:49;;;;;;;12.02;2.67;;;;;;;;;;6202378;22;20100;-67
2022/06/11 12:18:17;;;;;;;17.10;3.42;;;;;;;;;;6201964;23;20031;-66
2022/06/11 12:20:54;;;;;;;13.20;2.55;;;;;;;;;;6203784;23;20104;-66
2022/06/11 12:23:24;;;;;;;14.65;2.83;;;;;;;;;;6209172;23;20099;-67
2022/06/11 12:25:53;;;;;;;12.07;3.20;;;;;;;;;;6210329;23;20394;-68
2022/06/11 12:28:21;;;;;;;14.30;3.08;;;;;;;;;;6202103;22;20523;-67
2022/06/11 12:30:48;;;;;;;15.90;3.53;;;;;;;;;;6204446;23;20404;-67
2022/06/11 12:33:16;;;;;;;15.27;3.00;;;;;;;;;;6196315;22;20047;-66
2022/06/11 12:35:49;;;;;;;11.50;2.17;;;;;;;;;;6210949;23;20020;-66
2022/06/11 12:38:24;;;;;;;12.30;2.83;;;;;;;;;;6202664;23;20391;-66
2022/06/11 12:40:52;;;;;;;12.60;2.80;;;;;;;;;;6210878;23;20341;-67
2022/06/11 12:43:26;;;;;;;13.15;2.80;;;;;;;;;;6210593;23;20017;-67
2022/06/11 12:46:02;;;;;;;12.32;2.90;;;;;;;;;;6194815;23;20020;-66
2022/06/11 12:48:47;;;;;;;16.08;2.97;;;;;;;;;;6209803;23;20083;-66
2022/06/11 12:51:18;;;;;;;13.98;2.83;;;;;;;;;;6204425;23;20020;-68
2022/06/11 12:54:11;;;;;;;10.75;2.80;;;;;;;;;;6210938;23;20469;-67
2022/06/11 12:56:44;;;;;;;11.40;3.15;;;;;;;;;;6201652;22;20111;-66
2022/06/11 12:59:19;;;;;;;11.65;2.53;;;;;;;;;;6203363;23;20107;-67
2022/06/11 13:01:51;;;;;;;17.48;3.50;;;;;;;;;;6195232;23;20020;-67
2022/06/11 13:04:20;;;;;;;15.63;3.25;;;;;;;;;;6209985;23;20473;-66
2022/06/11 13:07:04;;;;;;;11.63;3.10;;;;;;;;;;6201008;23;20044;-67
2022/06/11 13:09:48;;;;;;;12.57;3.08;;;;;;;;;;6210032;23;20016;-67
2022/06/11 13:12:24;;;;;;;12.68;3.42;;;;;;;;;;6198889;23;20021;-67
2022/06/11 13:14:59;;;;;;;11.93;3.00;;;;;;;;;;6207440;23;20092;-67
2022/06/11 13:17:44;;;;;;;13.43;2.80;;;;;;;;;;6209318;23;20021;-66
2022/06/11 13:20:14;;;;;;;13.98;3.33;;;;;;;;;;6208042;23;20095;-66
2022/06/11 13:22:44;;;;;;;10.95;2.67;;;;;;;;;;6210142;23;20099;-67
2022/06/11 13:25:14;;;;;;;9.95;2.60;;;;;;;;;;6199997;23;20521;-66
2022/06/11 13:27:47;;;;;;;12.95;3.10;;;;;;;;;;6209709;23;20405;-68
2022/06/11 13:30:22;;;;;;;14.90;3.05;;;;;;;;;;6200862;23;20100;-67
2022/06/11 13:33:07;;;;;;;12.60;3.03;;;;;;;;;;6209899;23;20016;-67
2022/06/11 13:35:47;;;;;;;20.25;3.70;;;;;;;;;;6196629;23;20024;-67
2022/06/11 13:38:18;;;;;;;14.75;3.42;;;;;;;;;;6204674;23;20052;-68
2022/06/11 13:40:48;;;;;;;10.55;2.63;;;;;;;;;;6202464;23;20063;-67
2022/06/11 13:43:30;;;;;;;14.82;3.28;;;;;;;;;;6209622;23;20446;-67
2022/06/11 13:46:02;;;;;;;12.07;2.60;;;;;;;;;;6209795;23;20028;-66
2022/06/11 13:48:53;;;;;;;13.57;3.33;;;;;;;;;;6195982;23;20543;-67
2022/06/11 13:51:24;;;;;;;13.57;3.08;;;;;;;;;;6203120;23;20068;-67
2022/06/11 13:57:03;;;;;;;12.90;2.80;;;;;;;;;;6209984;23;20346;-67
2022/06/11 13:59:35;;;;;;;9.60;2.75;;;;;;;;;;6202085;22;20100;-67
2022/06/11 14:02:16;;;;;;;11.00;2.72;;;;;;;;;;6206927;23;20039;-66
2022/06/11 14:04:44;;;;;;;10.10;2.53;;;;;;;;;;6194033;23;20104;-67
2022/06/11 14:07:14;;;;;;;9.15;2.45;;;;;;;;;;6209763;23;20080;-66
2022/06/11 14:12:45;;;;;;;12.30;2.50;;;;;;;;;;6211046;23;20123;-67
2022/06/11 14:15:14;;;;;;;11.65;2.83;;;;;;;;;;6202962;23;20031;-66
2022/06/11 14:17:40;;;;;;;13.00;3.00;;;;;;;;;;6202398;23;20020;-67
2022/06/11 14:20:26;;;;;;;12.30;2.63;;;;;;;;;;6208584;23;20063;-66
2022/06/11 14:22:57;;;;;;;13.25;2.80;;;;;;;;;;6205344;23;20079;-66
2022/06/11 14:25:50;;;;;;;12.13;2.85;;;;;;;;;;6211008;23;20402;-66
2022/06/11 14:28:16;;;;;;;8.95;2.50;;;;;;;;;;6199522;22;20175;-67
2022/06/11 14:30:45;;;;;;;12.65;3.17;;;;;;;;;;6204649;23;20016;-67
2022/06/11 14:33:12;;;;;;;11.30;2.80;;;;;;;;;;6197402;23;20020;-66
2022/06/11 14:35:48;;;;;;;11.32;2.78;;;;;;;;;;6211326;23;20020;-67
2022/06/11 14:38:20;;;;;;;14.48;2.97;;;;;;;;;;6203450;23;20500;-66
2022/06/11 14:40:48;;;;;;;14.77;3.15;;;;;;;;;;6212103;23;20092;-67
2022/06/11 14:43:16;;;;;;;13.30;3.28;;;;;;;;;;6184622;23;20498;-67
2022/06/11 14:45:42;;;;;;;;;;;;;;;;;;6196394;23;20514;-67
2022/06/11 14:48:10;;;;;;;14.27;2.72;;;;;;;;;;6210088;23;19943;-66
2022/06/11 14:50:36;;;;;;;;;;;;;;;;;;6204047;23;20058;-67
2022/06/11 14:53:05;;;;;;;11.00;2.88;;;;;;;;;;6211178;23;19916;-66
2022/06/11 14:55:33;;;;;;;13.00;3.33;;;;;;;;;;6203922;23;20099;-67
2022/06/11 14:58:25;;;;;;;9.25;2.78;;;;;;;;;;6205518;23;20017;-67
2022/06/11 15:01:04;;;;;;;12.90;3.10;;;;;;;;;;6199210;23;20481;-67
2022/06/11 15:03:39;;;;;;;14.30;3.25;;;;;;;;;;6210949;23;20016;-67
2022/06/11 15:06:26;;;;;;;9.13;2.83;;;;;;;;;;6210802;23;20032;-67
2022/06/11 15:08:58;;;;;;;14.82;2.97;;;;;;;;;;6210758;23;20099;-66